Time;durP1;ratioP1;P1;durP2;ratioP2;P2;SDS_P1;SDS_P2;PMS_P1;PMS_P2;Temp;Humidity;BMP_temperature;BMP_pressure;BME280_temperature;BME280_humidity;BME280_pressure;Samples;Min_cycle;Max_cycle;Signal;HPM_P1;HPM_P2
2023/03/06 00:00:23;;;;;;;5.27;2.70;;;-2.90;99.90;-4.10;98958;;;;588144;244;24068;-76
2023/03/06 00:02:51;;;;;;;6.77;2.57;;;-2.90;99.90;-4.10;98960;;;;576281;244;24124;-76
2023/03/06 00:05:19;;;;;;;5.97;2.97;;;-2.90;99.90;-4.10;98952;;;;576207;244;24072;-79
2023/03/06 00:07:46;;;;;;;8.23;2.57;;;-2.90;99.90;-4.10;98958;;;;579208;244;25118;-78
2023/03/06 00:10:20;;;;;;;8.70;3.17;;;-3.00;99.90;-4.10;98953;;;;579342;244;24076;-76
2023/03/06 00:12:48;;;;;;;5.33;3.13;;;-3.00;99.90;-4.20;98957;;;;579237;244;24078;-76
2023/03/06 00:15:16;;;;;;;3.17;2.40;;;-3.00;99.90;-4.10;98956;;;;579327;244;24033;-78
2023/03/06 00:17:47;;;;;;;7.33;2.77;;;-3.00;99.90;-4.20;98951;;;;576172;244;24072;-79
2023/03/06 00:20:11;;;;;;;4.23;2.87;;;-3.00;99.90;-4.20;98956;;;;579611;243;24085;-72
2023/03/06 00:22:39;;;;;;;11.53;3.40;;;-3.10;99.90;-4.30;98940;;;;577516;243;24075;-77
2023/03/06 00:25:07;;;;;;;8.80;3.13;;;-3.10;99.90;-4.30;98945;;;;589134;242;24158;-72
2023/03/06 00:27:35;;;;;;;5.27;2.77;;;-3.10;99.90;-4.30;98937;;;;580144;243;24054;-73
2023/03/06 00:30:03;;;;;;;5.40;2.37;;;-3.10;99.90;-4.30;98944;;;;579920;244;24059;-72
2023/03/06 00:32:31;;;;;;;3.17;2.60;;;-3.20;99.90;-4.30;98947;;;;576980;244;24168;-72
2023/03/06 00:34:59;;;;;;;6.10;3.10;;;-3.20;99.90;-4.30;98940;;;;580004;244;24033;-73
2023/03/06 00:37:27;;;;;;;6.10;3.03;;;-3.20;99.90;-4.30;98941;;;;579797;244;24052;-73
2023/03/06 00:39:55;;;;;;;6.00;2.60;;;-3.20;99.90;-4.30;98938;;;;579726;244;24085;-79
2023/03/06 00:42:26;;;;;;;5.60;2.57;;;-3.10;99.90;-4.30;98941;;;;579950;244;24059;-76
2023/03/06 00:44:50;;;;;;;3.17;2.17;;;-3.10;99.90;-4.30;98942;;;;579807;244;24103;-77
2023/03/06 00:47:18;;;;;;;5.00;2.40;;;-3.20;99.90;-4.30;98954;;;;579950;244;24085;-77
2023/03/06 00:49:46;;;;;;;6.03;2.00;;;-3.10;99.90;-4.30;98947;;;;579772;244;24062;-79
2023/03/06 00:52:17;;;;;;;5.50;2.47;;;-3.10;99.90;-4.30;98944;;;;579613;244;24062;-80
2023/03/06 00:54:42;;;;;;;6.40;2.50;;;-3.10;99.90;-4.30;98948;;;;562009;251;24128;-76
2023/03/06 00:57:10;;;;;;;6.20;2.37;;;-3.20;99.90;-4.40;98941;;;;578393;246;24067;-76
2023/03/06 00:59:38;;;;;;;9.03;2.70;;;-3.20;99.90;-4.40;98948;;;;561993;251;24125;-79
2023/03/06 01:02:06;;;;;;;4.37;2.50;;;-3.20;99.90;-4.30;98947;;;;572494;246;24136;-79
2023/03/06 01:04:34;;;;;;;6.53;2.97;;;-3.20;99.90;-4.30;98937;;;;579698;244;24060;-78
2023/03/06 01:07:05;;;;;;;5.23;2.47;;;-3.20;99.90;-4.30;98938;;;;576763;244;25162;-78
2023/03/06 01:09:30;;;;;;;4.93;2.53;;;-3.20;99.90;-4.30;98938;;;;576396;244;24166;-77
2023/03/06 01:12:01;;;;;;;6.30;2.63;;;-3.10;99.90;-4.30;98930;;;;579756;244;24067;-77
2023/03/06 01:14:25;;;;;;;4.83;2.20;;;-3.10;99.90;-4.30;98937;;;;579431;244;24060;-76
2023/03/06 01:16:54;;;;;;;8.87;2.77;;;-3.20;99.90;-4.30;98927;;;;579682;244;24053;-74
2023/03/06 01:19:22;;;;;;;6.40;2.40;;;-3.20;99.90;-4.30;98930;;;;579602;244;24083;-74
2023/03/06 01:21:50;;;;;;;6.43;2.30;;;-3.20;99.90;-4.30;98927;;;;579713;244;24041;-73
2023/03/06 01:24:18;;;;;;;4.50;2.50;;;-3.20;99.90;-4.30;98928;;;;579691;244;24067;-74
2023/03/06 01:26:46;;;;;;;4.40;2.40;;;-3.20;99.90;-4.30;98918;;;;579720;244;24052;-72
2023/03/06 01:29:14;;;;;;;2.10;1.80;;;-3.20;99.90;-4.30;98917;;;;579657;244;24078;-75
2023/03/06 01:31:42;;;;;;;4.17;2.17;;;-3.20;99.90;-4.30;98918;;;;580012;242;24060;-72
2023/03/06 01:34:10;;;;;;;6.07;2.70;;;-3.20;99.90;-4.30;98922;;;;581046;243;24067;-78
2023/03/06 01:36:39;;;;;;;3.30;2.23;;;-3.20;99.90;-4.40;98927;;;;580611;243;24157;-74
2023/03/06 01:39:08;;;;;;;7.80;2.37;;;-3.20;99.90;-4.40;98920;;;;580531;243;24081;-75
2023/03/06 01:41:36;;;;;;;3.90;2.23;;;-3.20;99.90;-4.40;98919;;;;580327;244;24095;-73
2023/03/06 01:44:04;;;;;;;3.33;2.50;;;-3.30;99.90;-4.40;98924;;;;579948;244;27308;-76
2023/03/06 01:46:40;;;;;;;4.10;2.17;;;-3.30;99.90;-4.50;98909;;;;579795;244;24072;-73
2023/03/06 01:49:24;;;;;;;3.43;2.37;;;-3.30;99.90;-4.50;98917;;;;579702;244;24060;-76
2023/03/06 01:51:58;;;;;;;5.50;2.87;;;-3.30;99.90;-4.50;98903;;;;580429;236;24095;-75
2023/03/06 01:54:31;;;;;;;4.33;2.60;;;-3.30;99.90;-4.50;98906;;;;595841;240;24126;-74
2023/03/06 01:57:05;;;;;;;4.37;2.43;;;-3.30;99.90;-4.50;98904;;;;594920;237;24086;-75
2023/03/06 01:59:33;;;;;;;4.37;2.37;;;-3.30;99.90;-4.50;98901;;;;587168;240;24055;-76
2023/03/06 02:02:04;;;;;;;3.63;2.43;;;-3.40;99.90;-4.50;98901;;;;592967;240;24064;-79
2023/03/06 02:04:29;;;;;;;5.77;2.47;;;-3.40;99.90;-4.50;98906;;;;586858;240;24070;-84
2023/03/06 02:06:57;;;;;;;3.27;2.10;;;-3.30;99.90;-4.50;98901;;;;595636;238;24045;-85
2023/03/06 02:09:28;;;;;;;4.17;2.00;;;-3.30;99.90;-4.50;98900;;;;592672;240;24044;-85
2023/03/06 02:11:53;;;;;;;3.77;1.93;;;-3.30;99.90;-4.50;98901;;;;595831;240;24058;-84
2023/03/06 02:14:21;;;;;;;6.33;2.37;;;-3.30;99.90;-4.50;98895;;;;586910;240;24056;-75
2023/03/06 02:16:49;;;;;;;6.63;2.63;;;-3.30;99.90;-4.50;98894;;;;586848;240;24067;-77
2023/03/06 02:19:17;;;;;;;4.13;2.17;;;-3.30;99.90;-4.50;98896;;;;594096;240;24090;-80
2023/03/06 02:21:45;;;;;;;3.73;1.87;;;-3.30;99.90;-4.50;98897;;;;579505;240;24146;-83
2023/03/06 02:24:37;;;;;;;2.03;1.90;;;-3.30;99.90;-4.50;98905;;;;587253;240;24037;-82
2023/03/06 02:27:05;;;;;;;3.67;2.27;;;-3.30;99.90;-4.50;98897;;;;586904;240;24045;-78
2023/03/06 02:29:32;;;;;;;5.77;2.00;;;-3.40;99.90;-4.50;98892;;;;592932;240;24054;-76
2023/03/06 02:32:00;;;;;;;6.17;2.80;;;-3.40;99.90;-4.60;98901;;;;587020;240;24074;-79
2023/03/06 02:34:28;;;;;;;3.20;2.20;;;-3.40;99.90;-4.50;98892;;;;586999;240;24072;-76
2023/03/06 02:37:02;;;;;;;6.57;2.50;;;-3.40;99.90;-4.60;98898;;;;586897;240;24054;-75
2023/03/06 02:39:30;;;;;;;4.70;2.23;;;-3.40;99.90;-4.60;98897;;;;586850;240;25090;-75
2023/03/06 02:41:58;;;;;;;4.67;1.90;;;-3.40;99.90;-4.60;98898;;;;592577;240;24102;-80
2023/03/06 02:44:28;;;;;;;5.70;1.97;;;-3.40;99.90;-4.60;98891;;;;587949;240;24036;-76
2023/03/06 02:46:57;;;;;;;3.57;2.13;;;-3.40;99.90;-4.60;98894;;;;595743;240;24105;-85
2023/03/06 02:49:21;;;;;;;3.80;2.20;;;-3.40;99.90;-4.60;98891;;;;586930;240;24089;-75
2023/03/06 02:51:49;;;;;;;5.90;1.97;;;-3.40;99.90;-4.60;98878;;;;587684;240;24071;-74
2023/03/06 02:54:18;;;;;;;4.10;2.10;;;-3.40;99.90;-4.70;98879;;;;587330;240;24079;-75
2023/03/06 02:56:46;;;;;;;5.87;3.40;;;-3.50;99.90;-4.70;98886;;;;587346;240;24100;-77
2023/03/06 02:59:14;;;;;;;2.40;2.20;;;-3.50;99.90;-4.70;98884;;;;587059;240;24135;-75
2023/03/06 03:01:42;;;;;;;3.57;1.93;;;-3.50;99.90;-4.70;98877;;;;586862;240;24059;-79
2023/03/06 03:04:10;;;;;;;5.20;1.83;;;-3.50;99.90;-4.70;98872;;;;586851;240;24071;-75
2023/03/06 03:06:39;;;;;;;3.13;1.70;;;-3.50;99.90;-4.70;98881;;;;586718;240;24057;-75
2023/03/06 03:09:07;;;;;;;5.70;2.77;;;-3.50;99.90;-4.70;98876;;;;586832;240;24115;-75
2023/03/06 03:11:35;;;;;;;5.83;2.10;;;-3.50;99.90;-4.70;98878;;;;586806;240;24063;-83
2023/03/06 03:14:03;;;;;;;3.70;2.03;;;-3.50;99.90;-4.70;98870;;;;586772;240;25124;-83
2023/03/06 03:16:31;;;;;;;5.30;1.97;;;-3.50;99.90;-4.70;98873;;;;586859;240;24068;-77
2023/03/06 03:18:59;;;;;;;5.33;2.30;;;-3.50;99.90;-4.70;98876;;;;586665;240;24045;-80
2023/03/06 03:21:30;;;;;;;4.50;2.10;;;-3.50;99.90;-4.80;98877;;;;586617;240;24125;-82
2023/03/06 03:23:55;;;;;;;5.33;2.10;;;-3.50;99.90;-4.80;98872;;;;586073;240;24066;-81
2023/03/06 03:26:24;;;;;;;5.77;2.00;;;-3.60;99.90;-4.80;98876;;;;586344;240;25159;-75
2023/03/06 03:28:55;;;;;;;6.33;2.43;;;-3.60;99.90;-4.80;98870;;;;586630;240;24111;-75
2023/03/06 03:31:21;;;;;;;3.60;2.20;;;-3.60;99.90;-4.80;98876;;;;585999;240;24061;-75
2023/03/06 03:33:49;;;;;;;2.50;1.80;;;-3.60;99.90;-4.90;98873;;;;586528;240;24069;-85
2023/03/06 03:36:17;;;;;;;5.30;2.80;;;-3.70;99.90;-4.90;98869;;;;586518;240;24083;-74
2023/03/06 03:38:45;;;;;;;3.13;1.90;;;-3.70;99.90;-4.90;98869;;;;586584;240;24051;-74
2023/03/06 03:41:14;;;;;;;5.37;2.47;;;-3.60;99.90;-4.80;98880;;;;586488;240;24068;-81
2023/03/06 03:43:42;;;;;;;6.13;2.17;;;-3.60;99.90;-4.80;98876;;;;586372;240;24071;-86
2023/03/06 03:46:10;;;;;;;3.03;1.87;;;-3.60;99.90;-4.80;98877;;;;586779;240;24061;-86
2023/03/06 03:48:38;;;;;;;3.80;2.17;;;-3.60;99.90;-4.70;98870;;;;586917;240;24076;-86
2023/03/06 03:51:05;;;;;;;4.67;2.53;;;-3.60;99.90;-4.70;98875;;;;586985;240;24085;-85
2023/03/06 03:53:33;;;;;;;5.47;2.80;;;-3.50;99.90;-4.70;98872;;;;586479;240;24058;-78
2023/03/06 03:56:04;;;;;;;5.40;2.47;;;-3.50;99.90;-4.70;98862;;;;587903;240;24076;-80
2023/03/06 03:58:29;;;;;;;5.60;2.80;;;-3.50;99.90;-4.70;98861;;;;587179;240;24107;-74
2023/03/06 04:00:57;;;;;;;5.10;2.70;;;-3.50;99.90;-4.70;98863;;;;587235;240;24042;-76
2023/03/06 04:03:25;;;;;;;4.40;2.30;;;-3.50;99.90;-4.80;98864;;;;587390;240;24048;-75
2023/03/06 04:05:54;;;;;;;3.57;2.17;;;-3.50;99.90;-4.80;98859;;;;586892;240;24123;-77
2023/03/06 04:08:21;;;;;;;2.70;2.07;;;-3.50;99.90;-4.80;98859;;;;587185;240;24065;-81
2023/03/06 04:10:49;;;;;;;3.97;1.90;;;-3.60;99.90;-4.80;98865;;;;586973;240;24107;-83
2023/03/06 04:13:21;;;;;;;6.10;2.20;;;-3.60;99.90;-4.80;98863;;;;586812;240;24059;-83
2023/03/06 04:15:45;;;;;;;4.67;1.83;;;-3.60;99.90;-4.90;98865;;;;586310;240;24066;-78
2023/03/06 04:18:15;;;;;;;6.00;2.00;;;-3.60;99.90;-5.00;98849;;;;586747;240;24114;-83
2023/03/06 04:20:41;;;;;;;6.90;1.97;;;-3.80;99.90;-5.00;98845;;;;586860;240;24069;-86
2023/03/06 04:23:09;;;;;;;4.17;2.10;;;-3.80;99.90;-5.00;98852;;;;586502;240;24106;-77
2023/03/06 04:25:37;;;;;;;7.67;2.60;;;-3.80;99.90;-5.00;98840;;;;587861;240;24078;-84
2023/03/06 04:28:05;;;;;;;4.03;1.87;;;-3.90;99.90;-5.00;98842;;;;587011;240;24124;-86
2023/03/06 04:30:36;;;;;;;3.23;1.97;;;-3.80;99.90;-5.00;98844;;;;586848;240;24055;-84
2023/03/06 04:33:01;;;;;;;3.03;2.00;;;-3.80;99.90;-5.00;98851;;;;586457;240;24097;-87
2023/03/06 04:35:29;;;;;;;4.43;1.90;;;-3.80;99.90;-5.00;98845;;;;586642;240;24047;-84
2023/03/06 04:37:57;;;;;;;6.07;2.10;;;-3.80;99.90;-5.00;98846;;;;586617;240;24047;-82
2023/03/06 04:40:28;;;;;;;5.30;2.10;;;-3.80;99.90;-5.00;98851;;;;586555;240;25100;-82
2023/03/06 04:42:53;;;;;;;5.30;2.07;;;-3.80;99.90;-5.00;98846;;;;595264;240;24069;-79
2023/03/06 04:45:22;;;;;;;2.93;1.73;;;-3.80;99.90;-5.10;98849;;;;586396;240;24081;-76
2023/03/06 04:47:50;;;;;;;9.37;2.40;;;-3.80;99.90;-5.10;98848;;;;593883;240;24103;-75
2023/03/06 04:50:18;;;;;;;4.87;2.03;;;-3.90;99.90;-5.10;98852;;;;587047;240;24130;-76
2023/03/06 04:52:46;;;;;;;7.53;2.30;;;-3.90;99.90;-5.20;98853;;;;593239;240;24057;-76
2023/03/06 04:55:13;;;;;;;5.07;3.03;;;-3.90;99.90;-5.20;98862;;;;595161;239;24110;-77
2023/03/06 04:57:41;;;;;;;3.27;1.67;;;-3.90;99.90;-5.20;98852;;;;586336;240;24074;-78
2023/03/06 05:00:09;;;;;;;3.07;1.90;;;-4.00;99.90;-5.20;98857;;;;592311;240;24048;-79
2023/03/06 05:02:37;;;;;;;4.10;1.70;;;-4.00;99.90;-5.30;98852;;;;586273;240;24073;-79
2023/03/06 05:05:09;;;;;;;5.07;2.30;;;-4.00;99.90;-5.20;98856;;;;586999;240;24051;-81
2023/03/06 05:07:34;;;;;;;8.40;2.50;;;-4.00;99.90;-5.20;98860;;;;587299;240;24047;-74
2023/03/06 05:10:02;;;;;;;3.93;2.40;;;-4.00;99.90;-5.20;98860;;;;587925;240;24094;-79
2023/03/06 05:12:30;;;;;;;6.07;1.67;;;-4.00;99.90;-5.30;98859;;;;587819;240;24096;-75
2023/03/06 05:14:58;;;;;;;4.10;2.50;;;-4.10;99.90;-5.30;98852;;;;587633;240;24056;-76
2023/03/06 05:17:26;;;;;;;6.03;2.30;;;-4.10;99.90;-5.30;98856;;;;587434;240;24046;-81
2023/03/06 05:19:55;;;;;;;3.67;2.27;;;-4.10;99.90;-5.30;98863;;;;587346;240;24076;-74
2023/03/06 05:22:23;;;;;;;9.47;2.70;;;-4.10;99.90;-5.30;98853;;;;587416;240;24033;-79
2023/03/06 05:24:51;;;;;;;6.27;1.83;;;-4.10;99.90;-5.30;98852;;;;587353;240;24376;-79
2023/03/06 05:27:19;;;;;;;3.95;2.20;;;-4.00;99.90;-5.20;98860;;;;581979;240;35228;-78
2023/03/06 05:29:47;;;;;;;5.67;2.83;;;-4.00;99.90;-5.20;98866;;;;587190;240;25086;-76
2023/03/06 05:32:16;;;;;;;3.77;2.03;;;-3.90;99.90;-5.10;98854;;;;587158;240;24067;-78
2023/03/06 05:34:44;;;;;;;3.20;2.30;;;-4.00;99.90;-5.10;98856;;;;587080;240;24033;-75
2023/03/06 05:37:12;;;;;;;9.53;2.50;;;-3.90;99.90;-5.10;98855;;;;587226;240;24107;-76
2023/03/06 05:39:40;;;;;;;4.17;2.50;;;-3.90;99.90;-5.00;98855;;;;587285;240;24052;-76
2023/03/06 05:42:08;;;;;;;5.53;3.03;;;-3.80;99.90;-5.00;98862;;;;587112;240;24123;-82
2023/03/06 05:44:36;;;;;;;4.60;2.43;;;-3.80;99.90;-4.90;98855;;;;586851;240;24057;-81
2023/03/06 05:47:04;;;;;;;3.87;2.80;;;-3.70;99.90;-4.80;98874;;;;587029;240;24058;-79
2023/03/06 05:49:32;;;;;;;5.40;2.90;;;-3.60;99.90;-4.80;98865;;;;586901;240;24128;-79
2023/03/06 05:52:04;;;;;;;5.50;2.43;;;-3.60;99.90;-4.80;98866;;;;586455;240;24102;-74
2023/03/06 05:54:28;;;;;;;6.47;2.37;;;-3.60;99.90;-4.70;98874;;;;586038;240;24085;-75
2023/03/06 05:56:57;;;;;;;5.07;2.70;;;-3.50;99.90;-4.60;98873;;;;586897;238;24045;-78
2023/03/06 05:59:28;;;;;;;2.87;2.47;;;-3.50;99.90;-4.60;98881;;;;586943;240;24056;-82
2023/03/06 06:01:52;;;;;;;5.73;2.30;;;-3.40;99.90;-4.50;98876;;;;586358;240;24082;-78
2023/03/06 06:04:24;;;;;;;5.17;2.40;;;-3.40;99.90;-4.50;98878;;;;586881;240;24041;-74
2023/03/06 06:06:58;;;;;;;5.23;2.60;;;-3.30;99.90;-4.50;98882;;;;593536;240;24052;-74
2023/03/06 06:09:23;;;;;;;3.80;2.47;;;-3.30;99.90;-4.40;98885;;;;593803;240;24063;-77
2023/03/06 06:11:55;;;;;;;4.97;2.53;;;-3.20;99.90;-4.30;98882;;;;587050;240;24057;-75
2023/03/06 06:14:22;;;;;;;3.40;2.50;;;-3.20;99.90;-4.30;98897;;;;586287;240;24082;-74
2023/03/06 06:16:51;;;;;;;6.07;2.53;;;-3.10;99.90;-4.20;98890;;;;586896;240;24116;-75
2023/03/06 06:19:19;;;;;;;8.03;2.60;;;-3.10;99.90;-4.20;98890;;;;588050;240;24037;-79
2023/03/06 06:21:47;;;;;;;6.37;3.17;;;-3.00;99.90;-4.10;98889;;;;588184;240;24153;-75
2023/03/06 06:24:15;;;;;;;9.97;5.67;;;-3.00;99.90;-4.00;98889;;;;597069;240;24041;-79
2023/03/06 06:26:43;;;;;;;14.93;8.23;;;-2.80;99.90;-3.90;98890;;;;596956;240;24100;-75
2023/03/06 06:29:12;;;;;;;30.70;15.30;;;-2.70;99.90;-3.90;98895;;;;575940;242;24075;-75
2023/03/06 06:31:40;;;;;;;20.67;11.97;;;-2.70;99.90;-3.80;98906;;;;565090;250;24099;-75
2023/03/06 06:34:08;;;;;;;13.33;7.40;;;-2.60;99.90;-3.70;98910;;;;565262;249;24115;-74
2023/03/06 06:36:36;;;;;;;5.73;3.60;;;-2.50;99.90;-3.60;98908;;;;565115;250;24150;-76
2023/03/06 06:39:07;;;;;;;7.37;3.70;;;-2.50;99.90;-3.40;98917;;;;586988;240;24041;-75
2023/03/06 06:41:32;;;;;;;18.70;10.07;;;-2.30;99.90;-2.50;98919;;;;564462;250;24121;-74
2023/03/06 06:44:00;;;;;;;10.10;6.03;;;0.30;99.90;0.00;98928;;;;565400;250;24113;-77
2023/03/06 06:46:28;;;;;;;6.50;4.67;;;0.20;99.90;2.90;98946;;;;565224;250;24126;-75
2023/03/06 06:48:57;;;;;;;4.87;2.23;;;2.80;99.90;5.90;98945;;;;569250;250;24106;-75
2023/03/06 06:51:24;;;;;;;5.67;2.60;;;5.50;99.90;7.90;98946;;;;584471;245;24076;-80
2023/03/06 06:53:52;;;;;;;4.70;2.10;;;7.80;99.90;9.30;98949;;;;564737;250;24115;-75
2023/03/06 06:56:20;;;;;;;4.50;1.77;;;9.50;99.90;11.20;98947;;;;593748;239;25115;-76
2023/03/06 06:58:48;;;;;;;3.50;2.10;;;11.30;92.40;12.40;98942;;;;564384;250;24149;-75
2023/03/06 07:01:16;;;;;;;4.80;1.97;;;12.60;85.30;13.70;98940;;;;564352;250;24123;-77
2023/03/06 07:03:44;;;;;;;4.70;3.03;;;13.90;73.20;14.60;98939;;;;586132;240;24093;-84
2023/03/06 07:06:12;;;;;;;3.77;2.47;;;15.80;62.30;15.50;98946;;;;573047;248;24116;-82
2023/03/06 07:08:40;;;;;;;4.73;2.20;;;15.80;62.30;16.50;98948;;;;568626;250;24102;-83
2023/03/06 07:11:11;;;;;;;4.20;2.80;;;16.70;57.40;17.20;98952;;;;564875;247;24100;-78
2023/03/06 07:13:41;;;;;;;4.23;2.80;;;17.50;54.60;17.60;98954;;;;563821;250;24127;-84
2023/03/06 07:16:07;;;;;;;5.20;3.10;;;18.00;52.10;17.80;98957;;;;576934;245;24075;-77
2023/03/06 07:18:35;;;;;;;11.60;3.30;;;18.40;51.40;18.60;98959;;;;586495;240;24114;-82
2023/03/06 07:21:03;;;;;;;8.93;3.80;;;18.90;49.80;19.30;98957;;;;574858;245;24134;-85
2023/03/06 07:23:33;;;;;;;9.00;2.57;;;19.60;48.20;19.80;98960;;;;564724;250;23134;-78
2023/03/06 07:25:58;;;;;;;3.67;2.73;;;20.10;47.10;20.20;98962;;;;564592;250;23202;-83
2023/03/06 07:28:27;;;;;;;7.13;2.70;;;21.00;44.00;20.60;98968;;;;580848;245;23180;-85
2023/03/06 07:30:59;;;;;;;3.40;2.30;;;20.90;44.40;21.00;98968;;;;576067;245;24122;-84
2023/03/06 07:33:23;;;;;;;6.83;2.00;;;21.40;43.50;21.00;98975;;;;575508;245;24096;-83
2023/03/06 07:35:51;;;;;;;4.83;2.83;;;21.50;42.70;21.20;98971;;;;575890;245;23091;-84
2023/03/06 07:38:19;;;;;;;8.83;2.90;;;21.70;42.40;21.30;98968;;;;575743;245;24138;-79
2023/03/06 07:40:47;;;;;;;3.83;2.80;;;21.90;41.90;21.30;98974;;;;575554;245;24074;-76
2023/03/06 07:43:14;;;;;;;8.97;3.47;;;21.80;41.20;21.40;98975;;;;580454;245;24126;-82
2023/03/06 07:45:42;;;;;;;10.07;6.93;;;21.80;41.30;21.60;98978;;;;575914;245;24066;-77
2023/03/06 07:48:10;;;;;;;5.80;3.97;;;21.90;41.00;22.00;98979;;;;575483;244;24076;-78
2023/03/06 07:50:42;;;;;;;5.17;2.77;;;22.90;40.00;22.50;98987;;;;582953;245;23134;-79
2023/03/06 07:53:07;;;;;;;3.87;2.37;;;22.90;39.90;23.20;98993;;;;595482;240;24094;-81
2023/03/06 07:55:35;;;;;;;6.63;2.73;;;23.60;39.00;23.90;98988;;;;564768;250;24123;-78
2023/03/06 07:58:03;;;;;;;4.07;2.50;;;24.20;38.00;24.10;98995;;;;569042;250;24103;-77
2023/03/06 08:00:31;;;;;;;3.10;2.73;;;24.60;37.70;24.10;98993;;;;565329;250;24102;-76
2023/03/06 08:02:58;;;;;;;5.93;2.60;;;24.60;37.30;24.30;99003;;;;583470;245;24108;-78
2023/03/06 08:05:27;;;;;;;3.90;2.70;;;24.90;36.50;24.50;98998;;;;594914;239;24030;-76
2023/03/06 08:07:55;;;;;;;9.23;2.80;;;24.90;36.40;24.70;99003;;;;564626;250;23158;-77
2023/03/06 08:10:23;;;;;;;7.53;2.77;;;25.30;36.10;25.10;99005;;;;568995;250;23101;-78
2023/03/06 08:12:51;;;;;;;5.87;3.00;;;25.60;36.10;25.50;99005;;;;565156;250;24134;-77
2023/03/06 08:15:20;;;;;;;13.87;2.93;;;26.30;35.10;25.60;99005;;;;583176;245;23150;-76
2023/03/06 08:17:48;;;;;;;2.97;2.53;;;26.40;34.60;25.60;99012;;;;586853;240;23073;-86
2023/03/06 08:20:17;;;;;;;3.03;2.33;;;26.40;34.60;25.20;99006;;;;573061;250;24195;-85
2023/03/06 08:22:47;;;;;;;3.10;2.43;;;26.10;34.80;25.20;99007;;;;565189;250;24155;-85
2023/03/06 08:25:15;;;;;;;5.47;2.80;;;25.80;35.10;25.50;99009;;;;559705;250;35447;-83
2023/03/06 08:27:43;;;;;;;5.33;2.57;;;26.00;34.50;25.80;99008;;;;568986;250;23127;-84
2023/03/06 08:30:14;;;;;;;6.17;2.70;;;26.40;34.40;26.20;99017;;;;565195;250;23116;-77
2023/03/06 08:32:38;;;;;;;5.53;2.53;;;26.60;34.00;26.20;99012;;;;574704;245;23106;-84
2023/03/06 08:35:06;;;;;;;3.53;2.60;;;26.90;34.10;26.50;99015;;;;583193;245;24066;-84
2023/03/06 08:37:35;;;;;;;5.47;2.67;;;27.30;33.40;26.40;99016;;;;586834;240;23132;-77
2023/03/06 08:40:04;;;;;;;8.57;3.20;;;27.40;33.70;26.50;99016;;;;564632;250;24195;-83
2023/03/06 08:42:32;;;;;;;7.00;3.13;;;27.30;33.60;26.50;99011;;;;565863;249;23125;-85
2023/03/06 08:45:00;;;;;;;8.40;3.40;;;27.40;33.50;27.00;99029;;;;587560;240;23075;-78
2023/03/06 08:47:30;;;;;;;3.23;2.70;;;27.80;33.20;27.10;99017;;;;565418;250;24114;-79
2023/03/06 08:49:57;;;;;;;5.23;3.20;;;28.20;32.50;27.40;99031;;;;565207;250;23186;-78
2023/03/06 08:52:24;;;;;;;3.90;3.17;;;28.20;32.50;27.70;99024;;;;587032;240;23063;-80
2023/03/06 08:54:52;;;;;;;5.93;2.67;;;28.60;32.20;27.30;99024;;;;565107;250;24119;-78
2023/03/06 08:57:20;;;;;;;8.67;3.07;;;28.50;32.10;26.90;99026;;;;564887;250;23138;-76
2023/03/06 08:59:48;;;;;;;5.23;2.67;;;28.20;32.30;26.70;99029;;;;586572;240;23058;-76
2023/03/06 09:02:16;;;;;;;4.93;2.60;;;27.90;32.30;26.40;99030;;;;564906;250;24138;-77
2023/03/06 09:04:44;;;;;;;5.70;2.40;;;27.60;33.10;26.30;99026;;;;569281;250;23100;-77
2023/03/06 09:07:11;;;;;;;3.17;2.57;;;27.50;32.60;26.50;99028;;;;565331;250;24119;-78
2023/03/06 09:09:39;;;;;;;10.97;2.73;;;27.60;32.50;26.50;99030;;;;583548;245;24128;-76
2023/03/06 09:12:07;;;;;;;3.50;2.50;;;27.70;32.70;26.60;99032;;;;594915;239;23063;-76
2023/03/06 09:14:35;;;;;;;6.50;2.80;;;27.80;32.50;26.60;99032;;;;564950;250;23136;-77
2023/03/06 09:17:04;;;;;;;5.17;2.43;;;27.90;32.00;26.60;99049;;;;569299;250;23093;-80
2023/03/06 09:19:32;;;;;;;3.37;2.75;;;27.80;31.90;26.40;99039;;;;560207;250;35367;-80
2023/03/06 09:22:00;;;;;;;3.62;2.42;;;27.90;31.30;26.50;99032;;;;583225;245;24094;-84
2023/03/06 09:24:28;;;;;;;5.37;3.00;;;27.90;32.40;26.80;99032;;;;586893;240;23046;-82
2023/03/06 09:26:55;;;;;;;3.37;2.90;;;28.10;31.80;27.10;99037;;;;564667;250;24195;-82
2023/03/06 09:29:23;;;;;;;2.47;2.20;;;28.40;31.60;26.60;99033;;;;568996;250;23092;-85
2023/03/06 09:31:54;;;;;;;5.10;2.63;;;28.20;31.30;26.30;99041;;;;565138;250;24102;-84
2023/03/06 09:34:19;;;;;;;3.87;2.50;;;27.90;31.70;25.80;99034;;;;582793;245;23113;-86
2023/03/06 09:36:47;;;;;;;4.90;2.57;;;27.40;31.90;24.90;99033;;;;582044;245;23095;-82
2023/03/06 09:39:15;;;;;;;5.93;3.03;;;26.60;32.20;23.10;99026;;;;583245;245;23080;-82
2023/03/06 09:41:43;;;;;;;6.00;3.50;;;25.40;32.80;21.60;99033;;;;594713;239;23090;-84
2023/03/06 09:44:16;;;;;;;3.33;2.47;;;23.80;34.40;20.40;99038;;;;564553;250;24160;-85
2023/03/06 09:47:06;;;;;;;5.90;2.03;;;21.40;36.70;19.40;99039;;;;575247;245;24184;-79
2023/03/06 09:49:46;;;;;;;2.43;2.03;;;21.30;36.60;18.10;99036;;;;564750;250;24106;-77
2023/03/06 09:52:32;;;;;;;5.97;2.17;;;20.00;37.70;16.80;99028;;;;586338;240;24057;-79
2023/03/06 09:55:15;;;;;;;4.53;1.57;;;18.60;38.90;15.50;99027;;;;565998;249;24109;-82
2023/03/06 09:58:10;;;;;;;2.00;1.80;;;17.10;40.10;14.30;99025;;;;584754;242;24103;-85
2023/03/06 10:00:59;;;;;;;3.40;2.20;;;15.70;42.20;13.60;99019;;;;565781;249;24124;-85
2023/03/06 10:03:36;;;;;;;4.47;2.13;;;14.70;44.80;14.60;99024;;;;578002;244;24136;-81
2023/03/06 10:06:28;;;;;;;2.63;1.80;;;15.20;46.90;14.80;99020;;;;575490;240;24053;-84
2023/03/06 10:09:01;;;;;;;2.50;2.23;;;15.80;44.70;13.60;99023;;;;566960;249;24223;-83
2023/03/06 10:11:48;;;;;;;1.57;1.40;;;14.90;44.90;11.90;99014;;;;568992;245;24082;-82
2023/03/06 10:14:36;;;;;;;3.27;2.07;;;13.60;45.60;10.70;99015;;;;575887;246;24169;-82
2023/03/06 10:17:08;;;;;;;4.27;2.13;;;12.20;48.30;9.90;99007;;;;573655;250;24107;-83
2023/03/06 10:19:41;;;;;;;3.17;1.70;;;11.30;50.30;9.30;99004;;;;574408;246;24107;-86
2023/03/06 10:22:30;;;;;;;2.23;2.00;;;10.50;51.80;9.00;99009;;;;578485;240;24096;-84
2023/03/06 10:25:12;;;;;;;2.33;2.10;;;10.00;53.50;9.70;99014;;;;594290;240;24062;-83
2023/03/06 10:28:01;;;;;;;2.87;1.67;;;10.40;53.90;10.20;99015;;;;571175;250;24114;-83
2023/03/06 10:30:44;;;;;;;4.23;1.63;;;10.90;53.30;10.60;99017;;;;564822;250;24180;-86
2023/03/06 10:33:33;;;;;;;4.07;2.00;;;11.40;52.50;10.70;99012;;;;586534;240;24036;-86
2023/03/06 10:36:01;;;;;;;5.20;1.57;;;11.60;51.90;10.60;99010;;;;564087;250;24232;-83
2023/03/06 10:38:36;;;;;;;5.63;1.60;;;11.70;51.00;10.30;99010;;;;568985;250;24110;-81
2023/03/06 10:41:08;;;;;;;3.03;1.93;;;11.50;50.60;9.60;99005;;;;583793;243;24082;-80
2023/03/06 10:43:37;;;;;;;1.80;1.70;;;10.10;51.70;8.90;99010;;;;564349;250;24138;-82
2023/03/06 10:46:08;;;;;;;2.47;1.37;;;10.10;51.70;8.00;99006;;;;595746;240;24073;-79
2023/03/06 10:48:34;;;;;;;2.93;1.00;;;9.30;52.10;7.40;98994;;;;572205;250;24187;-84
2023/03/06 10:51:18;;;;;;;6.37;1.70;;;8.60;53.40;6.90;98997;;;;564425;250;24119;-76
2023/03/06 10:53:52;;;;;;;6.93;1.80;;;8.00;54.80;6.70;98996;;;;586591;240;24070;-79
2023/03/06 10:56:32;;;;;;;2.43;1.70;;;7.60;56.20;6.40;98989;;;;564424;250;24148;-78
2023/03/06 10:59:18;;;;;;;4.93;1.70;;;7.20;57.00;6.00;98987;;;;579662;245;24131;-84
2023/03/06 11:01:46;;;;;;;2.93;1.87;;;6.80;58.10;5.80;98987;;;;572630;247;24138;-78
2023/03/06 11:04:14;;;;;;;4.27;1.53;;;6.50;58.50;5.70;98985;;;;564553;248;24183;-78
2023/03/06 11:06:42;;;;;;;4.80;1.77;;;6.40;59.20;5.70;98980;;;;569464;249;35385;-80
2023/03/06 11:09:21;;;;;;;2.30;1.65;;;6.40;60.00;5.80;98979;;;;591516;240;46023;-77
2023/03/06 11:11:50;;;;;;;2.27;1.53;;;6.60;60.50;5.90;98988;;;;565166;250;24103;-82
2023/03/06 11:14:18;;;;;;;1.47;1.37;;;6.60;60.50;5.90;98978;;;;575770;246;24390;-78
2023/03/06 11:16:52;;;;;;;3.67;1.30;;;6.80;60.60;6.00;98979;;;;565508;249;24133;-81
2023/03/06 11:19:26;;;;;;;1.30;1.20;;;6.70;60.50;6.10;98968;;;;571859;249;24174;-77
2023/03/06 11:22:18;;;;;;;1.40;1.30;;;6.90;60.20;6.10;98977;;;;575631;245;24089;-78
2023/03/06 11:24:49;;;;;;;6.57;1.60;;;6.90;60.20;5.90;98970;;;;564854;250;24175;-76
2023/03/06 11:27:29;;;;;;;5.17;2.00;;;6.70;60.90;5.70;98971;;;;586911;240;24067;-75
2023/03/06 11:29:54;;;;;;;3.15;2.30;;;6.30;62.50;5.50;98971;;;;559589;250;35365;-76